createdAt,value
2022-09-22T00:01:18.737Z,1.70
2022-09-22T00:03:50.774Z,1.45
2022-09-22T00:06:21.947Z,1.55
2022-09-22T00:08:51.661Z,1.60
2022-09-22T00:11:28.993Z,1.52
2022-09-22T00:13:59.868Z,1.33
2022-09-22T00:16:30.491Z,1.55
2022-09-22T00:18:57.370Z,1.30
2022-09-22T00:21:27.863Z,1.58
2022-09-22T00:23:55.031Z,1.33
2022-09-22T00:26:23.367Z,1.63
2022-09-22T00:28:51.398Z,1.40
2022-09-22T00:31:23.922Z,1.17
2022-09-22T00:33:51.827Z,1.30
2022-09-22T00:36:19.865Z,1.45
2022-09-22T00:38:46.808Z,1.20
2022-09-22T00:41:22.385Z,1.40
2022-09-22T00:43:51.549Z,1.67
2022-09-22T00:46:24.664Z,1.65
2022-09-22T00:49:06.865Z,1.45
2022-09-22T00:51:38.399Z,1.40
2022-09-22T00:54:10.262Z,1.90
2022-09-22T00:56:51.902Z,1.80
2022-09-22T00:59:21.814Z,1.38
2022-09-22T01:01:49.216Z,1.60
2022-09-22T01:04:17.214Z,1.90
2022-09-22T01:06:44.295Z,1.70
2022-09-22T01:09:11.354Z,1.38
2022-09-22T01:11:39.967Z,1.80
2022-09-22T01:14:33.133Z,2.10
2022-09-22T01:17:20.040Z,1.83
2022-09-22T01:20:16.003Z,2.10
2022-09-22T01:23:15.639Z,1.67
2022-09-22T01:26:00.424Z,1.30
2022-09-22T01:29:04.190Z,1.88
2022-09-22T01:31:50.737Z,1.95
2022-09-22T01:34:27.194Z,1.73
2022-09-22T01:37:13.474Z,1.70
2022-09-22T01:39:51.682Z,1.80
2022-09-22T01:42:21.938Z,1.60
2022-09-22T01:44:58.346Z,1.55
2022-09-22T01:47:31.402Z,1.60
2022-09-22T01:50:03.025Z,1.30
2022-09-22T01:52:33.570Z,1.65
2022-09-22T01:55:06.256Z,1.83
2022-09-22T01:58:07.954Z,1.42
2022-09-22T02:00:38.113Z,1.58
2022-09-22T02:03:11.550Z,1.20
2022-09-22T02:06:33.345Z,1.42
2022-09-22T02:09:06.966Z,1.40
2022-09-22T02:11:34.177Z,1.42
2022-09-22T02:14:02.427Z,1.55
2022-09-22T02:16:29.091Z,1.52
2022-09-22T02:19:13.699Z,1.63
2022-09-22T02:21:43.274Z,1.30
2022-09-22T02:24:46.102Z,1.40
2022-09-22T02:27:25.712Z,1.40
2022-09-22T02:30:03.081Z,1.30
2022-09-22T02:32:30.786Z,1.40
2022-09-22T02:34:57.570Z,1.60
2022-09-22T02:37:36.316Z,1.58
2022-09-22T02:40:26.607Z,1.55
2022-09-22T02:43:25.392Z,1.60
2022-09-22T02:46:34.170Z,1.67
2022-09-22T02:49:04.871Z,1.67
2022-09-22T02:51:32.502Z,1.70
2022-09-22T02:53:59.205Z,1.30
2022-09-22T02:56:25.882Z,1.35
2022-09-22T02:58:57.607Z,1.52
2022-09-22T03:01:25.242Z,1.50
2022-09-22T03:03:52.578Z,1.90
2022-09-22T03:06:19.180Z,1.88
2022-09-22T03:08:45.778Z,1.70
2022-09-22T03:11:12.292Z,1.58
2022-09-22T03:13:38.930Z,1.90
2022-09-22T03:16:06.525Z,1.95
2022-09-22T03:18:33.163Z,1.70
2022-09-22T03:20:59.739Z,1.83
2022-09-22T03:23:26.266Z,1.98
2022-09-22T03:25:52.834Z,1.52
2022-09-22T03:28:19.429Z,1.70
2022-09-22T03:30:46.000Z,1.63
2022-09-22T03:33:12.698Z,1.75
2022-09-22T03:35:39.472Z,1.40
2022-09-22T03:38:06.007Z,3.50
2022-09-22T03:40:32.544Z,1.92
2022-09-22T03:42:59.151Z,2.53
2022-09-22T03:45:25.766Z,1.60
2022-09-22T03:47:54.700Z,2.40
2022-09-22T03:50:21.574Z,2.25
2022-09-22T03:52:48.218Z,2.22
2022-09-22T03:55:14.882Z,2.25
2022-09-22T03:57:43.900Z,1.92
2022-09-22T04:00:11.050Z,2.17
2022-09-22T04:02:37.901Z,1.95
2022-09-22T04:05:04.828Z,2.58
2022-09-22T04:07:31.348Z,1.70
2022-09-22T04:09:58.039Z,2.10
2022-09-22T04:12:24.665Z,2.10
2022-09-22T04:14:51.212Z,2.63
2022-09-22T04:17:20.631Z,2.22
2022-09-22T04:19:47.957Z,2.20
2022-09-22T04:22:14.708Z,2.42
2022-09-22T04:24:41.593Z,2.17
2022-09-22T04:27:19.523Z,2.60
2022-09-22T04:29:47.287Z,2.58
2022-09-22T04:32:14.658Z,3.25
2022-09-22T04:34:41.443Z,2.00
2022-09-22T04:37:08.011Z,2.50
2022-09-22T04:39:35.659Z,2.40
2022-09-22T04:42:03.090Z,2.60
2022-09-22T04:44:34.581Z,2.58
2022-09-22T04:47:01.609Z,2.28
2022-09-22T04:49:28.133Z,3.00
2022-09-22T04:51:54.786Z,2.50
2022-09-22T04:54:21.367Z,2.15
2022-09-22T04:56:47.854Z,2.50
2022-09-22T04:59:14.375Z,3.97
2022-09-22T05:01:41.130Z,2.45
2022-09-22T05:04:07.816Z,3.53
2022-09-22T05:06:34.627Z,2.35
2022-09-22T05:09:01.119Z,2.20
2022-09-22T05:11:27.732Z,2.50
2022-09-22T05:13:56.143Z,2.70
2022-09-22T05:16:23.531Z,5.03
2022-09-22T05:18:50.450Z,2.60
2022-09-22T05:21:18.890Z,2.30
2022-09-22T05:23:45.962Z,2.10
2022-09-22T05:26:12.690Z,2.75
2022-09-22T05:28:39.204Z,2.22
2022-09-22T05:31:05.881Z,2.38
2022-09-22T05:33:32.418Z,2.70
2022-09-22T05:35:59.027Z,2.60
2022-09-22T05:38:25.541Z,2.42
2022-09-22T05:40:52.101Z,2.20
2022-09-22T05:43:18.671Z,2.17
2022-09-22T05:45:45.297Z,2.10
2022-09-22T05:48:11.899Z,2.08
2022-09-22T05:50:38.738Z,2.20
2022-09-22T05:53:10.395Z,2.00
2022-09-22T05:55:38.818Z,2.15
2022-09-22T05:58:05.611Z,2.22
2022-09-22T06:00:33.132Z,2.90
2022-09-22T06:02:59.743Z,2.30
2022-09-22T06:05:26.811Z,2.47
2022-09-22T06:08:01.913Z,2.28
2022-09-22T06:13:06.931Z,2.70
2022-09-22T06:15:35.764Z,2.65
2022-09-22T06:18:06.806Z,2.50
2022-09-22T06:20:34.851Z,2.22
2022-09-22T06:23:01.686Z,1.95
2022-09-22T06:25:28.289Z,2.60
2022-09-22T06:28:04.886Z,1.88
2022-09-22T06:30:32.564Z,1.92
2022-09-22T06:32:59.428Z,1.77
2022-09-22T06:35:32.481Z,2.05
2022-09-22T06:37:59.009Z,2.05
2022-09-22T06:40:26.430Z,2.30
2022-09-22T06:42:58.095Z,2.50
2022-09-22T06:45:27.339Z,1.98
2022-09-22T06:48:00.824Z,2.35
2022-09-22T06:50:32.853Z,2.88
2022-09-22T06:53:05.158Z,2.28
2022-09-22T06:55:32.014Z,2.38
2022-09-22T06:57:59.938Z,1.90
2022-09-22T07:00:31.343Z,1.90
2022-09-22T07:03:06.365Z,2.90
2022-09-22T07:07:59.466Z,2.65
2022-09-22T07:10:26.073Z,2.38
2022-09-22T07:12:52.720Z,2.10
2022-09-22T07:15:19.287Z,2.67
2022-09-22T07:17:48.152Z,2.25
2022-09-22T07:20:15.552Z,3.10
2022-09-22T07:22:42.110Z,1.77
2022-09-22T07:25:09.149Z,2.00
2022-09-22T07:27:35.745Z,1.23
2022-09-22T07:30:03.478Z,1.73
2022-09-22T07:32:34.919Z,1.67
2022-09-22T07:35:02.486Z,1.13
2022-09-22T07:37:33.253Z,1.83
2022-09-22T07:40:00.990Z,1.88
2022-09-22T07:42:28.076Z,1.60
2022-09-22T07:45:12.880Z,1.30
2022-09-22T07:48:02.818Z,2.00
2022-09-22T07:50:30.290Z,1.60
2022-09-22T07:52:56.942Z,1.30
2022-09-22T07:55:24.998Z,1.25
2022-09-22T07:57:59.852Z,1.75
2022-09-22T08:02:55.523Z,1.38
2022-09-22T08:05:23.578Z,1.08
2022-09-22T08:07:50.399Z,1.17
2022-09-22T08:10:18.931Z,1.50
2022-09-22T08:12:45.619Z,1.23
2022-09-22T08:15:12.679Z,1.10
2022-09-22T08:17:40.242Z,0.98
2022-09-22T08:20:09.084Z,0.90
2022-09-22T08:22:35.872Z,1.38
2022-09-22T08:25:02.637Z,1.10
2022-09-22T08:27:29.921Z,0.88
2022-09-22T08:29:56.881Z,0.68
2022-09-22T08:32:26.674Z,0.80
2022-09-22T08:34:57.957Z,1.10
2022-09-22T08:37:27.379Z,0.80
2022-09-22T08:39:54.591Z,0.63
2022-09-22T08:42:23.274Z,0.73
2022-09-22T08:45:17.802Z,0.88
2022-09-22T08:48:10.351Z,0.80
2022-09-22T08:51:07.550Z,0.57
2022-09-22T08:53:43.508Z,0.85
2022-09-22T08:56:33.558Z,1.00
2022-09-22T08:59:19.172Z,1.02
2022-09-22T09:01:55.937Z,1.10
2022-09-22T09:04:43.964Z,1.20
2022-09-22T09:07:21.912Z,0.93
2022-09-22T09:09:48.405Z,0.90
2022-09-22T09:12:52.171Z,1.00
2022-09-22T09:15:33.989Z,1.38
2022-09-22T09:18:09.362Z,0.82
2022-09-22T09:20:42.244Z,0.50
2022-09-22T09:23:16.736Z,0.98
2022-09-22T09:25:44.393Z,0.73
2022-09-22T09:28:21.982Z,0.90
2022-09-22T09:30:54.044Z,1.08
2022-09-22T09:33:38.043Z,1.20
2022-09-22T09:36:04.986Z,0.82
2022-09-22T09:38:40.896Z,0.95
2022-09-22T09:41:18.102Z,0.80
2022-09-22T09:43:45.679Z,1.15
2022-09-22T09:46:24.885Z,1.13
2022-09-22T09:49:00.273Z,1.10
2022-09-22T09:51:28.690Z,0.90
2022-09-22T09:53:58.455Z,0.70
2022-09-22T09:56:30.103Z,0.88
2022-09-22T09:59:16.411Z,1.02
2022-09-22T10:01:45.453Z,0.80
2022-09-22T10:04:32.261Z,1.40
2022-09-22T10:07:16.767Z,0.80
2022-09-22T10:09:49.798Z,1.05
2022-09-22T10:12:28.393Z,0.88
2022-09-22T10:14:58.660Z,1.00
2022-09-22T10:17:40.186Z,1.05
2022-09-22T10:20:22.443Z,0.85
2022-09-22T10:22:49.520Z,1.00
2022-09-22T10:25:25.969Z,1.08
2022-09-22T10:28:06.939Z,0.98
2022-09-22T10:30:37.547Z,0.90
2022-09-22T10:33:08.878Z,0.68
2022-09-22T10:35:36.354Z,0.80
2022-09-22T10:38:24.051Z,0.90
2022-09-22T10:40:58.207Z,0.80
2022-09-22T10:43:35.506Z,1.00
2022-09-22T10:46:12.048Z,1.10
2022-09-22T10:48:49.481Z,0.70
2022-09-22T10:51:21.751Z,1.77
2022-09-22T10:53:55.016Z,0.75
2022-09-22T10:56:38.853Z,0.88
2022-09-22T10:59:17.248Z,0.73
2022-09-22T11:02:15.144Z,0.65
2022-09-22T11:05:48.246Z,1.02
2022-09-22T11:08:36.587Z,0.75
2022-09-22T11:11:39.542Z,0.80
2022-09-22T11:14:39.088Z,1.00
2022-09-22T11:17:31.393Z,0.90
2022-09-22T11:20:09.982Z,0.93
2022-09-22T11:23:07.271Z,1.10
2022-09-22T11:25:49.397Z,0.60
2022-09-22T11:28:33.813Z,0.82
2022-09-22T11:31:00.873Z,0.70
2022-09-22T11:33:42.711Z,0.80
2022-09-22T11:36:40.607Z,0.80
2022-09-22T11:39:34.033Z,1.05
2022-09-22T11:42:17.278Z,0.70
2022-09-22T11:45:06.107Z,0.52
2022-09-22T11:47:58.542Z,0.90
2022-09-22T11:50:40.327Z,0.77
2022-09-22T11:53:31.643Z,0.82
2022-09-22T11:56:18.901Z,1.15
2022-09-22T11:58:47.682Z,0.82
2022-09-22T12:01:20.390Z,0.70
2022-09-22T12:03:53.018Z,0.88
2022-09-22T12:06:26.292Z,0.52
2022-09-22T12:09:01.175Z,0.95
2022-09-22T12:11:29.330Z,0.63
2022-09-22T12:14:00.088Z,1.00
2022-09-22T12:16:42.028Z,1.05
2022-09-22T12:19:40.804Z,0.90
2022-09-22T12:22:38.855Z,0.60
2022-09-22T12:25:05.851Z,1.05
2022-09-22T12:27:41.160Z,1.10
2022-09-22T12:30:22.258Z,0.80
2022-09-22T12:32:51.225Z,0.98
2022-09-22T12:35:27.342Z,1.00
2022-09-22T12:38:01.582Z,1.00
2022-09-22T12:40:32.766Z,0.88
2022-09-22T12:42:59.722Z,1.08
2022-09-22T12:45:32.011Z,0.90
2022-09-22T12:48:03.873Z,0.90
2022-09-22T12:50:35.054Z,1.27
2022-09-22T12:53:05.030Z,2.03
2022-09-22T12:55:40.346Z,1.13
2022-09-22T12:58:29.610Z,0.90
2022-09-22T13:01:17.269Z,1.80
2022-09-22T13:03:50.415Z,0.80
2022-09-22T13:06:42.919Z,0.73
2022-09-22T13:09:19.916Z,0.82
2022-09-22T13:12:27.886Z,0.77
2022-09-22T13:15:09.431Z,0.77
2022-09-22T13:17:43.968Z,1.08
2022-09-22T13:20:19.320Z,0.57
2022-09-22T13:22:45.931Z,0.90
2022-09-22T13:25:44.756Z,1.02
2022-09-22T13:28:26.070Z,1.30
2022-09-22T13:31:09.492Z,1.00
2022-09-22T13:33:36.722Z,0.88
2022-09-22T13:36:15.294Z,1.05
2022-09-22T13:38:45.075Z,1.00
2022-09-22T13:41:20.019Z,0.93
2022-09-22T13:43:50.430Z,1.00
2022-09-22T13:46:45.430Z,0.82
2022-09-22T13:49:18.115Z,1.20
2022-09-22T13:51:54.925Z,0.73
2022-09-22T13:54:24.572Z,0.80
2022-09-22T13:56:51.303Z,0.63
2022-09-22T13:59:18.302Z,1.48
2022-09-22T14:01:53.357Z,0.73
2022-09-22T14:04:27.958Z,0.90
2022-09-22T14:06:59.272Z,0.75
2022-09-22T14:09:26.382Z,0.82
2022-09-22T14:11:55.010Z,0.82
2022-09-22T14:14:26.360Z,1.02
2022-09-22T14:17:00.603Z,0.63
2022-09-22T14:19:34.150Z,1.00
2022-09-22T14:22:16.679Z,0.73
2022-09-22T14:24:48.899Z,0.82
2022-09-22T14:27:23.938Z,0.88
2022-09-22T14:29:52.973Z,0.82
2022-09-22T14:32:25.795Z,0.80
2022-09-22T14:34:58.507Z,0.82
2022-09-22T14:37:30.131Z,0.80
2022-09-22T14:39:58.106Z,0.95
2022-09-22T14:42:30.271Z,0.90
2022-09-22T14:45:18.488Z,1.30
2022-09-22T14:47:45.087Z,1.10
2022-09-22T14:50:19.192Z,1.20
2022-09-22T14:52:55.034Z,0.82
2022-09-22T14:55:35.867Z,1.08
2022-09-22T14:58:07.482Z,0.90
2022-09-22T15:00:53.649Z,0.85
2022-09-22T15:03:28.820Z,0.93
2022-09-22T15:06:05.235Z,0.90
2022-09-22T15:08:32.250Z,0.55
2022-09-22T15:11:01.546Z,1.17
2022-09-22T15:13:29.797Z,0.68
2022-09-22T15:15:57.276Z,0.93
2022-09-22T15:18:26.285Z,0.80
2022-09-22T15:21:12.054Z,0.70
2022-09-22T15:23:42.033Z,1.00
2022-09-22T15:26:17.868Z,0.98
2022-09-22T15:28:48.455Z,1.08
2022-09-22T15:31:28.459Z,1.13
2022-09-22T15:34:03.023Z,0.65
2022-09-22T15:36:32.135Z,1.10
2022-09-22T15:39:00.141Z,1.00
2022-09-22T15:41:27.550Z,1.25
2022-09-22T15:43:54.287Z,1.00
2022-09-22T15:46:35.941Z,1.27
2022-09-22T15:49:15.571Z,1.88
2022-09-22T15:51:42.090Z,1.27
2022-09-22T15:54:23.603Z,1.40
2022-09-22T15:56:53.304Z,1.50
2022-09-22T15:59:23.016Z,1.45
2022-09-22T16:01:51.963Z,1.23
2022-09-22T16:04:19.759Z,1.80
2022-09-22T16:06:52.840Z,1.80
2022-09-22T16:09:19.810Z,1.67
2022-09-22T16:11:47.187Z,2.05
2022-09-22T16:14:13.825Z,1.80
2022-09-22T16:16:40.406Z,1.80
2022-09-22T16:19:09.319Z,1.15
2022-09-22T16:21:40.571Z,1.15
2022-09-22T16:24:10.724Z,1.20
2022-09-22T16:26:39.706Z,1.63
2022-09-22T16:29:07.639Z,1.20
2022-09-22T16:31:35.656Z,1.40
2022-09-22T16:34:04.694Z,1.33
2022-09-22T16:36:33.831Z,1.40
2022-09-22T16:39:01.882Z,0.85
2022-09-22T16:41:31.160Z,1.63
2022-09-22T16:43:58.375Z,1.20
2022-09-22T16:46:26.750Z,2.47
2022-09-22T16:49:07.474Z,1.60
2022-09-22T16:51:40.111Z,1.35
2022-09-22T16:54:10.458Z,1.40
2022-09-22T16:56:40.442Z,1.20
2022-09-22T16:59:07.803Z,1.27
2022-09-22T17:01:37.197Z,1.10
2022-09-22T17:04:05.770Z,1.27
2022-09-22T17:06:32.738Z,1.30
2022-09-22T17:09:00.574Z,1.35
2022-09-22T17:11:33.283Z,2.53
2022-09-22T17:14:10.070Z,1.75
2022-09-22T17:16:51.948Z,2.03
2022-09-22T17:19:21.710Z,2.72
2022-09-22T17:21:51.991Z,1.65
2022-09-22T17:24:19.470Z,2.03
2022-09-22T17:26:52.110Z,1.77
2022-09-22T17:29:25.047Z,1.95
2022-09-22T17:31:56.528Z,1.77
2022-09-22T17:34:24.747Z,2.50
2022-09-22T17:36:52.521Z,1.85
2022-09-22T17:39:19.046Z,2.22
2022-09-22T17:41:46.965Z,2.28
2022-09-22T17:44:17.110Z,1.98
2022-09-22T17:47:01.902Z,1.95
2022-09-22T17:49:47.583Z,1.30
2022-09-22T17:52:34.653Z,1.75
2022-09-22T17:55:09.257Z,1.85
2022-09-22T17:57:41.915Z,1.98
2022-09-22T18:00:12.029Z,2.00
2022-09-22T18:02:41.215Z,1.52
2022-09-22T18:05:19.780Z,1.90
2022-09-22T18:07:49.470Z,1.77
2022-09-22T18:10:19.760Z,1.60
2022-09-22T18:12:46.526Z,2.25
2022-09-22T18:15:13.890Z,2.10
2022-09-22T18:17:42.153Z,2.78
2022-09-22T18:20:20.742Z,1.70
2022-09-22T18:22:49.208Z,1.58
2022-09-22T18:25:19.288Z,1.55
2022-09-22T18:27:48.493Z,1.63
2022-09-22T18:30:19.388Z,2.40
2022-09-22T18:32:47.730Z,2.60
2022-09-22T18:35:14.709Z,2.30
2022-09-22T18:37:41.843Z,2.20
2022-09-22T18:40:09.262Z,2.17
2022-09-22T18:42:36.759Z,2.60
2022-09-22T18:45:03.978Z,2.05
2022-09-22T18:47:30.619Z,2.35
2022-09-22T18:49:59.232Z,2.22
2022-09-22T18:52:25.764Z,2.33
2022-09-22T18:54:54.259Z,2.20
2022-09-22T18:57:24.650Z,2.63
2022-09-22T18:59:51.417Z,2.25
2022-09-22T19:02:22.749Z,1.92
2022-09-22T19:04:51.661Z,2.00
2022-09-22T19:07:41.597Z,1.50
2022-09-22T19:10:11.578Z,1.98
2022-09-22T19:12:39.713Z,1.92
2022-09-22T19:15:13.520Z,2.28
2022-09-22T19:17:44.300Z,1.95
2022-09-22T19:20:25.146Z,2.03
2022-09-22T19:22:52.880Z,1.90
2022-09-22T19:25:21.881Z,2.40
2022-09-22T19:27:48.952Z,2.63
2022-09-22T19:30:17.722Z,2.17
2022-09-22T19:32:47.273Z,1.77
2022-09-22T19:35:14.326Z,3.40
2022-09-22T19:37:41.645Z,2.90
2022-09-22T19:40:13.055Z,4.22
2022-09-22T19:42:40.545Z,3.10
2022-09-22T19:45:07.899Z,3.40
2022-09-22T19:47:34.602Z,2.83
2022-09-22T19:50:01.262Z,2.92
2022-09-22T19:52:27.841Z,2.50
2022-09-22T19:54:54.365Z,2.25
2022-09-22T19:57:20.889Z,2.28
2022-09-22T19:59:47.452Z,2.50
2022-09-22T20:02:15.174Z,1.90
2022-09-22T20:04:41.991Z,1.75
2022-09-22T20:07:11.000Z,2.25
2022-09-22T20:09:38.051Z,1.92
2022-09-22T20:12:05.098Z,2.83
2022-09-22T20:14:32.052Z,2.35
2022-09-22T20:17:07.213Z,2.20
2022-09-22T20:22:24.652Z,2.00
2022-09-22T20:24:57.453Z,1.90
2022-09-22T20:27:32.783Z,1.77
2022-09-22T20:30:00.250Z,1.73
2022-09-22T20:32:31.638Z,2.03
2022-09-22T20:34:58.331Z,2.40
2022-09-22T20:37:25.037Z,1.80
2022-09-22T20:39:52.129Z,1.60
2022-09-22T20:42:18.687Z,1.92
2022-09-22T20:44:45.482Z,1.50
2022-09-22T20:47:17.492Z,2.08
2022-09-22T20:49:48.120Z,1.85
2022-09-22T20:52:19.924Z,1.90
2022-09-22T20:54:47.246Z,2.10
2022-09-22T20:57:14.206Z,1.92
2022-09-22T20:59:41.591Z,1.98
2022-09-22T21:02:10.272Z,1.33
2022-09-22T21:04:36.823Z,1.60
2022-09-22T21:07:03.835Z,1.70
2022-09-22T21:09:48.992Z,1.83
2022-09-22T21:12:15.572Z,1.50
2022-09-22T21:14:45.878Z,2.30
2022-09-22T21:17:13.497Z,1.55
2022-09-22T21:19:40.192Z,1.80
2022-09-22T21:22:06.735Z,1.80
2022-09-22T21:24:34.160Z,2.10
2022-09-22T21:27:00.906Z,1.50
2022-09-22T21:29:28.756Z,1.55
2022-09-22T21:31:56.705Z,1.80
2022-09-22T21:34:23.623Z,2.08
2022-09-22T21:36:50.343Z,2.00
2022-09-22T21:39:17.232Z,1.88
2022-09-22T21:41:43.894Z,1.83
2022-09-22T21:44:10.552Z,2.13
2022-09-22T21:46:42.170Z,2.10
2022-09-22T21:49:10.078Z,1.80
2022-09-22T21:51:42.138Z,1.88
2022-09-22T21:54:13.038Z,2.03
2022-09-22T21:56:39.835Z,2.45
2022-09-22T21:59:06.451Z,2.17
2022-09-22T22:01:35.946Z,2.20
2022-09-22T22:04:04.973Z,1.90
2022-09-22T22:06:34.937Z,1.88
2022-09-22T22:09:04.645Z,2.05
2022-09-22T22:11:39.551Z,2.00
2022-09-22T22:14:09.132Z,2.20
2022-09-22T22:16:38.591Z,1.83
2022-09-22T22:19:06.533Z,1.98
2022-09-22T22:21:33.756Z,2.50
2022-09-22T22:24:32.408Z,2.55
2022-09-22T22:27:07.607Z,2.08
2022-09-22T22:32:07.343Z,2.60
2022-09-22T22:34:33.935Z,1.98
2022-09-22T22:37:00.596Z,2.33
2022-09-22T22:39:27.580Z,2.05
2022-09-22T22:41:55.316Z,2.05
2022-09-22T22:44:22.802Z,2.22
2022-09-22T22:46:49.524Z,2.00
2022-09-22T22:49:16.065Z,2.63
2022-09-22T22:51:43.445Z,1.67
2022-09-22T22:54:11.964Z,2.17
2022-09-22T22:56:42.014Z,2.15
2022-09-22T22:59:09.432Z,2.33
2022-09-22T23:01:36.249Z,2.10
2022-09-22T23:04:08.019Z,2.38
2022-09-22T23:06:40.079Z,2.03
2022-09-22T23:09:09.975Z,1.95
2022-09-22T23:11:40.073Z,2.13
2022-09-22T23:14:11.485Z,1.80
2022-09-22T23:16:41.618Z,1.88
2022-09-22T23:19:12.002Z,1.95
2022-09-22T23:21:38.583Z,2.80
2022-09-22T23:24:05.670Z,1.70
2022-09-22T23:26:32.280Z,2.30
2022-09-22T23:28:59.399Z,2.08
2022-09-22T23:31:26.362Z,2.40
2022-09-22T23:33:54.348Z,1.90
2022-09-22T23:36:24.243Z,1.90
2022-09-22T23:38:55.104Z,2.35
2022-09-22T23:41:21.970Z,1.98
2022-09-22T23:43:48.526Z,1.98
2022-09-22T23:46:15.612Z,1.85
2022-09-22T23:48:42.301Z,2.20
2022-09-22T23:51:10.281Z,1.85
2022-09-22T23:53:37.746Z,2.13
2022-09-22T23:56:06.339Z,1.88
2022-09-22T23:58:33.967Z,2.08
